Time;durP1;ratioP1;P1;durP2;ratioP2;P2;SDS_P1;SDS_P2;PMS_P1;PMS_P2;Temp;Humidity;BMP_temperature;BMP_pressure;BME280_temperature;BME280_humidity;BME280_pressure;Samples;Min_cycle;Max_cycle;Signal;HPM_P1;HPM_P2
2023/07/21 00:01:10;;;;;;;7.68;4.38;;;14.10;99.90;;;;;;5040917;28;20033;-71
2023/07/21 00:03:38;;;;;;;8.65;5.07;;;14.10;99.90;;;;;;5041931;28;20626;-70
2023/07/21 00:06:06;;;;;;;7.43;4.63;;;14.00;99.90;;;;;;5040249;28;20065;-71
2023/07/21 00:08:32;;;;;;;7.72;4.40;;;14.00;99.90;;;;;;5041565;28;20025;-70
2023/07/21 00:10:58;;;;;;;8.82;4.50;;;14.00;99.90;;;;;;5040574;28;20041;-71
2023/07/21 00:13:25;;;;;;;8.13;4.60;;;13.90;99.90;;;;;;5041647;28;20025;-71
2023/07/21 00:15:52;;;;;;;8.82;5.13;;;13.90;99.90;;;;;;5040936;28;20104;-71
2023/07/21 00:18:21;;;;;;;7.00;3.67;;;13.90;99.90;;;;;;5040920;28;20017;-70
2023/07/21 00:20:47;;;;;;;4.63;3.75;;;13.90;99.90;;;;;;5039376;28;20033;-71
2023/07/21 00:23:14;;;;;;;7.97;3.83;;;13.90;99.90;;;;;;5040519;28;20023;-71
2023/07/21 00:25:40;;;;;;;28.60;4.43;;;13.90;99.90;;;;;;5041875;28;20064;-70
2023/07/21 00:28:06;;;;;;;101.45;6.18;;;13.90;99.90;;;;;;5040219;28;20026;-70
2023/07/21 00:30:33;;;;;;;52.08;4.80;;;13.90;99.90;;;;;;5040825;28;20393;-70
2023/07/21 00:33:00;;;;;;;19.05;4.70;;;13.90;99.90;;;;;;5040567;28;20018;-71
2023/07/21 00:35:26;;;;;;;22.60;4.70;;;13.90;99.90;;;;;;5039301;28;20053;-70
2023/07/21 00:37:52;;;;;;;65.20;6.32;;;13.90;99.90;;;;;;5041804;28;20033;-70
2023/07/21 00:40:20;;;;;;;12.40;4.45;;;13.80;99.90;;;;;;5041077;28;20061;-71
2023/07/21 00:42:46;;;;;;;31.27;5.88;;;13.70;99.90;;;;;;5040984;28;20053;-71
2023/07/21 00:45:15;;;;;;;12.43;4.90;;;13.70;99.90;;;;;;5041700;28;20063;-71
2023/07/21 00:47:42;;;;;;;15.57;5.75;;;13.70;99.90;;;;;;5040983;28;20013;-71
2023/07/21 00:50:08;;;;;;;14.15;5.63;;;13.60;99.90;;;;;;5041276;28;20117;-71
2023/07/21 00:52:35;;;;;;;11.40;5.82;;;13.50;99.90;;;;;;5042104;28;20048;-71
2023/07/21 00:55:01;;;;;;;16.63;5.55;;;13.50;99.90;;;;;;5044825;28;20711;-71
2023/07/21 00:57:28;;;;;;;10.98;5.50;;;13.40;99.90;;;;;;5045108;28;20445;-71
2023/07/21 00:59:54;;;;;;;6.05;4.97;;;13.40;99.90;;;;;;5045172;28;20068;-71
2023/07/21 01:02:21;;;;;;;7.07;4.85;;;13.40;99.90;;;;;;5043472;28;20030;-71
2023/07/21 01:04:46;;;;;;;9.43;4.85;;;13.40;99.90;;;;;;5043787;28;20021;-71
2023/07/21 01:07:13;;;;;;;7.65;4.80;;;13.30;99.90;;;;;;5044873;28;20113;-71
2023/07/21 01:09:40;;;;;;;7.82;5.80;;;13.30;99.90;;;;;;5044881;28;20021;-70
2023/07/21 01:12:07;;;;;;;6.85;4.70;;;13.30;99.90;;;;;;5044687;28;20025;-70
2023/07/21 01:14:37;;;;;;;11.35;5.70;;;13.30;99.90;;;;;;5044325;28;20025;-71
2023/07/21 01:17:06;;;;;;;7.15;5.47;;;13.20;99.90;;;;;;5044216;28;20540;-70
2023/07/21 01:19:32;;;;;;;7.80;5.25;;;13.30;99.90;;;;;;5044759;28;20026;-71
2023/07/21 01:22:18;;;;;;;8.55;5.00;;;13.30;99.90;;;;;;5044841;28;20021;-70
2023/07/21 01:24:51;;;;;;;7.13;5.13;;;13.20;99.90;;;;;;5044772;28;20025;-71
2023/07/21 01:27:20;;;;;;;8.50;5.50;;;13.20;99.90;;;;;;5044874;28;20021;-71
2023/07/21 01:29:46;;;;;;;8.50;5.32;;;13.20;99.90;;;;;;5042854;28;20112;-70
2023/07/21 01:32:14;;;;;;;8.88;5.35;;;13.30;99.90;;;;;;5044866;28;20014;-70
2023/07/21 01:34:41;;;;;;;9.18;5.75;;;13.30;99.90;;;;;;5044780;28;20036;-70
2023/07/21 01:37:08;;;;;;;11.23;6.03;;;13.30;99.90;;;;;;5042986;28;20120;-71
2023/07/21 01:39:36;;;;;;;10.20;5.80;;;13.30;99.90;;;;;;5043125;28;20029;-71
2023/07/21 01:42:06;;;;;;;9.35;6.28;;;13.30;99.90;;;;;;5042703;28;20037;-71
2023/07/21 01:44:32;;;;;;;9.20;6.00;;;13.30;99.90;;;;;;5043987;28;20043;-72
2023/07/21 01:46:58;;;;;;;13.45;6.22;;;13.30;99.90;;;;;;5044612;28;20021;-71
2023/07/21 01:49:23;;;;;;;8.18;5.85;;;13.30;99.90;;;;;;5044498;28;20036;-71
2023/07/21 01:51:51;;;;;;;11.38;6.03;;;13.40;99.90;;;;;;5043918;28;20042;-70
2023/07/21 01:54:28;;;;;;;9.82;5.55;;;13.40;99.90;;;;;;5042379;28;20421;-71
2023/07/21 01:56:59;;;;;;;11.88;6.88;;;13.40;99.90;;;;;;5043466;28;20502;-70
2023/07/21 01:59:26;;;;;;;10.85;6.05;;;13.50;99.90;;;;;;5043913;28;20022;-70
2023/07/21 02:01:54;;;;;;;10.00;6.45;;;13.50;99.90;;;;;;5044395;28;20691;-71
2023/07/21 02:04:21;;;;;;;13.25;7.03;;;13.50;99.90;;;;;;5041605;28;20030;-71
2023/07/21 02:06:47;;;;;;;12.07;6.40;;;13.50;99.90;;;;;;5042290;28;20030;-71
2023/07/21 02:09:13;;;;;;;9.70;5.97;;;13.50;99.90;;;;;;5043999;28;20040;-71
2023/07/21 02:11:40;;;;;;;10.60;6.45;;;13.50;99.90;;;;;;5043779;28;20027;-70
2023/07/21 02:14:06;;;;;;;10.35;6.47;;;13.50;99.90;;;;;;5043518;28;20072;-71
2023/07/21 02:16:32;;;;;;;10.40;6.53;;;13.50;99.90;;;;;;5043721;28;20075;-70
2023/07/21 02:18:58;;;;;;;10.82;6.45;;;13.50;99.90;;;;;;5042060;28;20028;-70
2023/07/21 02:21:23;;;;;;;10.70;6.72;;;13.50;99.90;;;;;;5043636;28;20484;-71
2023/07/21 02:23:49;;;;;;;13.40;6.60;;;13.50;99.90;;;;;;5043675;28;20021;-71
2023/07/21 02:26:15;;;;;;;12.48;6.53;;;13.50;99.90;;;;;;5042056;28;20026;-71
2023/07/21 02:28:41;;;;;;;9.77;5.88;;;13.50;99.90;;;;;;5044154;28;20033;-71
2023/07/21 02:31:09;;;;;;;18.38;6.70;;;13.50;99.90;;;;;;5043393;28;20029;-71
2023/07/21 02:33:35;;;;;;;11.63;6.88;;;13.50;99.90;;;;;;5041984;28;20021;-71
2023/07/21 02:36:03;;;;;;;13.15;6.75;;;13.50;99.90;;;;;;5043367;28;20045;-70
2023/07/21 02:38:28;;;;;;;8.63;6.32;;;13.50;99.90;;;;;;5043245;28;20060;-71
2023/07/21 02:40:58;;;;;;;10.95;6.70;;;13.50;99.90;;;;;;5041036;28;20422;-71
2023/07/21 02:43:23;;;;;;;11.15;6.03;;;13.40;99.90;;;;;;5042956;28;20052;-71
2023/07/21 02:45:53;;;;;;;11.68;6.70;;;13.50;99.90;;;;;;5042989;28;20451;-71
2023/07/21 02:48:20;;;;;;;16.40;7.47;;;13.50;99.90;;;;;;5042677;28;20028;-72
2023/07/21 02:50:51;;;;;;;14.32;7.72;;;13.50;99.90;;;;;;5042386;28;20103;-71
2023/07/21 02:53:20;;;;;;;14.35;7.65;;;13.50;99.90;;;;;;5042585;28;20059;-71
2023/07/21 02:55:46;;;;;;;16.10;7.30;;;13.50;99.90;;;;;;5042901;28;20028;-71
2023/07/21 02:58:14;;;;;;;11.07;7.07;;;13.60;99.90;;;;;;5043110;28;20027;-71
2023/07/21 03:00:40;;;;;;;14.43;7.25;;;13.60;99.90;;;;;;5042851;28;20124;-70
2023/07/21 03:03:08;;;;;;;16.20;7.95;;;13.60;99.90;;;;;;5042610;28;20071;-71
2023/07/21 03:05:35;;;;;;;12.93;7.20;;;13.60;99.90;;;;;;5042280;28;20439;-71
2023/07/21 03:08:01;;;;;;;12.20;7.10;;;13.60;99.90;;;;;;5042569;28;20061;-71
2023/07/21 03:10:27;;;;;;;10.88;6.78;;;13.60;99.90;;;;;;5042981;28;20037;-71
2023/07/21 03:12:53;;;;;;;14.55;7.30;;;13.60;99.90;;;;;;5042270;28;20014;-71
2023/07/21 03:15:19;;;;;;;12.15;6.40;;;13.60;99.90;;;;;;5041481;28;20029;-71
2023/07/21 03:17:44;;;;;;;17.92;7.80;;;13.60;99.90;;;;;;5042836;28;20021;-72
2023/07/21 03:20:12;;;;;;;13.60;7.82;;;13.60;99.90;;;;;;5042739;28;20073;-71
2023/07/21 03:22:44;;;;;;;14.07;7.45;;;13.50;99.90;;;;;;5042554;28;20053;-71
2023/07/21 03:25:12;;;;;;;10.88;6.55;;;13.60;99.90;;;;;;5042696;28;20041;-72
2023/07/21 03:27:39;;;;;;;14.70;7.57;;;13.50;99.90;;;;;;5041779;28;20025;-71
2023/07/21 03:30:14;;;;;;;13.07;6.97;;;13.50;99.90;;;;;;5041081;28;20028;-71
2023/07/21 03:32:43;;;;;;;11.30;7.22;;;13.50;99.90;;;;;;5042458;28;20029;-71
2023/07/21 03:35:08;;;;;;;11.77;7.32;;;13.50;99.90;;;;;;5041905;28;20047;-71
2023/07/21 03:37:35;;;;;;;10.88;7.13;;;13.50;99.90;;;;;;5042097;28;20617;-71
2023/07/21 03:40:06;;;;;;;14.63;8.43;;;13.40;99.90;;;;;;5039545;28;20118;-71
2023/07/21 03:42:33;;;;;;;13.20;7.90;;;13.40;99.90;;;;;;5041760;28;20465;-71
2023/07/21 03:44:58;;;;;;;13.68;7.45;;;13.40;99.90;;;;;;5042029;28;20183;-71
2023/07/21 03:47:24;;;;;;;13.23;7.90;;;13.40;99.90;;;;;;5042112;28;20032;-71
2023/07/21 03:49:50;;;;;;;16.60;8.18;;;13.30;99.90;;;;;;5040669;28;20017;-71
2023/07/21 03:52:18;;;;;;;13.68;7.53;;;13.30;99.90;;;;;;5042076;28;20040;-71
2023/07/21 03:54:43;;;;;;;20.23;7.82;;;13.30;99.90;;;;;;5042286;28;20387;-70
2023/07/21 03:57:10;;;;;;;12.45;7.45;;;13.30;99.90;;;;;;5041713;28;20049;-71
2023/07/21 03:59:37;;;;;;;16.25;7.85;;;13.30;99.90;;;;;;5041711;28;20021;-71
2023/07/21 04:02:03;;;;;;;13.32;8.18;;;13.20;99.90;;;;;;5041870;28;20109;-71
2023/07/21 04:04:32;;;;;;;14.77;8.13;;;13.20;99.90;;;;;;5040140;28;20522;-71
2023/07/21 04:07:00;;;;;;;18.90;8.48;;;13.20;99.90;;;;;;5041625;28;20021;-70
2023/07/21 04:09:25;;;;;;;15.32;9.18;;;13.20;99.90;;;;;;5040471;28;20026;-71
2023/07/21 04:11:51;;;;;;;15.02;8.40;;;13.20;99.90;;;;;;5039990;28;20067;-71
2023/07/21 04:14:16;;;;;;;17.25;8.77;;;13.30;99.90;;;;;;5041913;28;20021;-71
2023/07/21 04:16:42;;;;;;;14.15;8.80;;;13.20;99.90;;;;;;5040371;28;20041;-72
2023/07/21 04:19:11;;;;;;;16.73;8.90;;;13.20;99.90;;;;;;5041704;28;20033;-71
2023/07/21 04:21:36;;;;;;;15.30;9.32;;;13.30;99.90;;;;;;5041532;28;20092;-71
2023/07/21 04:24:02;;;;;;;17.58;9.57;;;13.30;99.90;;;;;;5041820;28;20083;-70
2023/07/21 04:26:28;;;;;;;15.07;8.80;;;13.30;99.90;;;;;;5042297;28;20086;-71
2023/07/21 04:28:54;;;;;;;22.17;9.90;;;13.30;99.90;;;;;;5045793;28;20045;-71
2023/07/21 04:31:21;;;;;;;22.23;11.15;;;13.30;99.90;;;;;;5045656;28;20024;-70
2023/07/21 04:33:48;;;;;;;15.55;9.07;;;13.30;99.90;;;;;;5045144;28;20028;-71
2023/07/21 04:36:14;;;;;;;16.00;9.25;;;13.40;99.90;;;;;;5045687;28;20022;-70
2023/07/21 04:38:41;;;;;;;14.48;9.40;;;13.40;99.90;;;;;;5045594;28;20044;-71
2023/07/21 04:41:06;;;;;;;18.70;9.50;;;13.40;99.90;;;;;;5045372;28;20050;-71
2023/07/21 04:43:32;;;;;;;20.88;10.20;;;13.40;99.90;;;;;;5045396;28;20032;-71
2023/07/21 04:45:57;;;;;;;34.95;12.07;;;13.40;99.90;;;;;;5045117;28;20021;-70
2023/07/21 04:48:23;;;;;;;23.88;11.40;;;13.40;99.90;;;;;;5044721;28;20039;-71
2023/07/21 04:50:52;;;;;;;45.85;13.07;;;13.40;99.90;;;;;;5045088;28;20056;-72
2023/07/21 04:53:18;;;;;;;62.22;10.52;;;13.40;99.90;;;;;;5044897;28;20104;-70
2023/07/21 04:55:44;;;;;;;19.55;10.65;;;13.50;99.90;;;;;;5045250;28;20026;-72
2023/07/21 04:58:09;;;;;;;26.52;9.45;;;13.50;99.90;;;;;;5045321;28;20041;-71
2023/07/21 05:00:35;;;;;;;19.35;9.52;;;13.50;99.90;;;;;;5044876;28;20083;-71
2023/07/21 05:03:01;;;;;;;14.77;8.20;;;13.50;99.90;;;;;;5043734;28;20038;-72
2023/07/21 05:05:27;;;;;;;16.45;9.38;;;13.50;99.90;;;;;;5044917;28;20029;-71
2023/07/21 05:07:53;;;;;;;16.60;9.73;;;13.60;99.90;;;;;;5044578;28;20036;-71
2023/07/21 05:10:19;;;;;;;16.15;9.15;;;13.60;99.90;;;;;;5045173;28;20021;-71
2023/07/21 05:12:45;;;;;;;15.68;9.20;;;13.60;99.90;;;;;;5044960;28;20382;-71
2023/07/21 05:15:13;;;;;;;16.65;10.23;;;13.60;99.90;;;;;;5043366;28;20116;-71
2023/07/21 05:17:40;;;;;;;14.52;9.13;;;13.70;99.90;;;;;;5042811;28;20022;-71
2023/07/21 05:20:07;;;;;;;14.75;8.73;;;13.70;99.90;;;;;;5044280;28;20038;-69
2023/07/21 05:22:33;;;;;;;16.45;9.57;;;13.70;99.90;;;;;;5044612;28;20060;-70
2023/07/21 05:24:59;;;;;;;16.58;9.10;;;13.80;99.90;;;;;;5043129;28;20080;-69
2023/07/21 05:27:25;;;;;;;17.85;10.02;;;13.90;99.90;;;;;;5044313;28;20030;-70
2023/07/21 05:29:51;;;;;;;16.73;9.80;;;13.90;99.90;;;;;;5044415;28;20081;-70
2023/07/21 05:32:16;;;;;;;21.05;10.55;;;13.90;99.90;;;;;;5042707;28;20029;-69
2023/07/21 05:34:43;;;;;;;22.30;10.38;;;14.00;99.90;;;;;;5043123;28;20083;-70
2023/07/21 05:37:11;;;;;;;19.83;10.65;;;14.00;99.90;;;;;;5043997;28;20041;-69
2023/07/21 05:39:39;;;;;;;19.10;10.70;;;14.00;99.90;;;;;;5043324;28;20014;-69
2023/07/21 05:42:05;;;;;;;16.42;9.77;;;14.00;99.90;;;;;;5043774;28;20525;-69
2023/07/21 05:44:33;;;;;;;13.45;9.13;;;14.10;99.90;;;;;;5044351;28;20036;-69
2023/07/21 05:46:59;;;;;;;12.98;8.25;;;14.10;99.90;;;;;;5042589;28;20093;-69
2023/07/21 05:49:25;;;;;;;14.90;8.23;;;14.10;99.90;;;;;;5042245;28;20037;-69
2023/07/21 05:51:51;;;;;;;11.60;7.45;;;14.10;99.90;;;;;;5043628;28;20576;-71
2023/07/21 05:54:17;;;;;;;15.73;9.10;;;14.10;99.90;;;;;;5044001;28;20026;-70
2023/07/21 05:56:43;;;;;;;16.25;9.55;;;14.10;99.90;;;;;;5041807;28;20049;-69
2023/07/21 05:59:09;;;;;;;11.40;8.48;;;14.20;99.90;;;;;;5041938;28;20042;-69
2023/07/21 06:01:36;;;;;;;13.70;8.68;;;14.20;99.90;;;;;;5040292;28;20071;-70
2023/07/21 06:04:03;;;;;;;15.07;10.15;;;14.10;99.90;;;;;;5038533;28;20088;-68
2023/07/21 06:06:30;;;;;;;17.08;10.65;;;14.10;99.90;;;;;;5038160;28;20026;-70
2023/07/21 06:08:56;;;;;;;16.45;9.65;;;14.10;99.90;;;;;;5040039;28;20040;-68
2023/07/21 06:11:23;;;;;;;15.32;9.43;;;14.20;99.90;;;;;;5042236;28;20034;-68
2023/07/21 06:13:49;;;;;;;14.55;9.50;;;14.10;99.90;;;;;;5041829;28;20036;-67
2023/07/21 06:16:15;;;;;;;15.45;10.15;;;14.20;99.90;;;;;;5042642;28;20386;-67
2023/07/21 06:18:42;;;;;;;16.00;10.32;;;14.20;99.90;;;;;;5043161;28;20048;-68
2023/07/21 06:21:11;;;;;;;14.73;9.23;;;14.20;99.90;;;;;;5042681;28;20097;-69
2023/07/21 06:23:37;;;;;;;22.83;11.93;;;14.20;99.90;;;;;;5042452;28;20035;-67
2023/07/21 06:26:03;;;;;;;16.42;11.13;;;14.30;99.90;;;;;;5043504;28;20025;-68
2023/07/21 06:28:29;;;;;;;19.00;11.05;;;14.40;99.90;;;;;;5043532;28;20109;-68
2023/07/21 06:30:55;;;;;;;13.65;9.77;;;14.40;99.90;;;;;;5042572;28;20028;-68
2023/07/21 06:33:20;;;;;;;15.90;9.50;;;14.50;99.90;;;;;;5043289;28;20041;-69
2023/07/21 06:35:46;;;;;;;14.38;9.68;;;14.50;99.90;;;;;;5043393;28;20022;-69
2023/07/21 06:38:12;;;;;;;17.55;10.40;;;14.60;99.90;;;;;;5041934;28;20021;-71
2023/07/21 06:40:37;;;;;;;18.00;10.00;;;14.70;99.90;;;;;;5043307;28;20045;-70
2023/07/21 06:43:03;;;;;;;18.88;10.40;;;14.80;99.90;;;;;;5042980;28;20064;-70
2023/07/21 06:45:29;;;;;;;15.93;10.07;;;14.80;99.90;;;;;;5043061;28;20079;-69
2023/07/21 06:47:54;;;;;;;20.13;10.32;;;14.90;99.90;;;;;;5043178;28;20017;-68
2023/07/21 06:50:20;;;;;;;14.68;9.85;;;15.00;99.90;;;;;;5042609;28;20048;-70
2023/07/21 06:52:46;;;;;;;11.05;8.30;;;15.10;99.90;;;;;;5042795;28;20056;-69
2023/07/21 06:55:12;;;;;;;17.08;10.02;;;15.10;99.90;;;;;;5043309;28;20033;-70
2023/07/21 06:57:37;;;;;;;14.45;9.70;;;15.20;99.90;;;;;;5042889;28;20022;-69
2023/07/21 07:00:05;;;;;;;18.05;11.25;;;15.30;99.90;;;;;;5042856;28;20057;-69
2023/07/21 07:02:31;;;;;;;18.77;10.63;;;15.30;99.90;;;;;;5042416;28;20017;-69
2023/07/21 07:04:56;;;;;;;17.00;8.95;;;15.30;99.90;;;;;;5042546;28;20024;-71
2023/07/21 07:07:22;;;;;;;14.82;9.38;;;15.40;99.90;;;;;;5042780;28;20022;-69
2023/07/21 07:09:48;;;;;;;15.88;9.40;;;15.50;99.90;;;;;;5042837;28;20044;-68
2023/07/21 07:12:13;;;;;;;17.75;9.73;;;15.50;99.90;;;;;;5042738;28;20018;-70
2023/07/21 07:14:39;;;;;;;17.30;9.30;;;15.60;99.90;;;;;;5040723;28;20032;-70
2023/07/21 07:17:05;;;;;;;13.30;8.25;;;15.70;99.90;;;;;;5040423;28;20025;-69
2023/07/21 07:19:30;;;;;;;15.40;7.68;;;15.70;99.90;;;;;;5038740;28;20075;-71
2023/07/21 07:21:56;;;;;;;13.90;8.18;;;15.80;99.90;;;;;;5040857;28;20101;-69
2023/07/21 07:24:22;;;;;;;11.52;7.55;;;15.90;99.90;;;;;;5040292;28;20030;-69
2023/07/21 07:26:48;;;;;;;14.13;8.45;;;16.00;99.90;;;;;;5040908;28;20037;-68
2023/07/21 07:29:17;;;;;;;15.48;8.73;;;16.00;99.90;;;;;;5041793;28;20026;-69
2023/07/21 07:31:43;;;;;;;12.00;6.80;;;16.10;99.90;;;;;;5042111;28;20017;-69
2023/07/21 07:34:08;;;;;;;11.77;8.43;;;16.20;99.90;;;;;;5041990;28;20905;-69
2023/07/21 07:36:34;;;;;;;11.85;7.68;;;16.20;99.90;;;;;;5040666;28;20026;-72
2023/07/21 07:38:59;;;;;;;17.55;7.93;;;16.30;99.90;;;;;;5040383;28;20049;-70
2023/07/21 07:41:25;;;;;;;12.75;7.57;;;16.30;99.90;;;;;;5041670;28;20042;-69
2023/07/21 07:43:51;;;;;;;12.45;7.82;;;16.30;99.90;;;;;;5040540;28;20920;-69
2023/07/21 07:46:17;;;;;;;11.95;7.82;;;16.40;99.90;;;;;;5041903;28;20033;-71
2023/07/21 07:48:45;;;;;;;11.48;7.18;;;16.40;99.90;;;;;;5041066;28;20048;-69
2023/07/21 07:51:10;;;;;;;9.75;6.60;;;16.40;99.90;;;;;;5039712;28;20045;-69
2023/07/21 07:53:36;;;;;;;10.80;6.32;;;16.40;99.90;;;;;;5041729;28;20053;-68
2023/07/21 07:56:03;;;;;;;10.95;6.03;;;16.50;99.90;;;;;;5041968;28;20026;-67
2023/07/21 07:58:29;;;;;;;10.15;6.32;;;16.50;99.90;;;;;;5041492;28;20104;-68
2023/07/21 08:00:56;;;;;;;10.55;5.57;;;16.60;99.90;;;;;;5040467;28;20084;-69
2023/07/21 08:03:22;;;;;;;7.78;4.75;;;16.70;99.90;;;;;;5040818;28;20052;-71
2023/07/21 08:05:49;;;;;;;7.22;4.80;;;16.70;99.90;;;;;;5041994;28;20025;-69
2023/07/21 08:08:15;;;;;;;10.27;5.95;;;16.70;99.90;;;;;;5040244;28;20017;-67
2023/07/21 08:10:41;;;;;;;9.15;6.15;;;16.70;99.90;;;;;;5040995;28;20052;-67
2023/07/21 08:13:08;;;;;;;9.52;4.35;;;16.70;99.90;;;;;;5040919;28;20044;-67
2023/07/21 08:15:33;;;;;;;10.63;3.92;;;16.80;99.90;;;;;;5039958;28;20109;-68
2023/07/21 08:17:59;;;;;;;6.72;3.78;;;16.90;99.90;;;;;;5039837;28;20025;-69
2023/07/21 08:20:25;;;;;;;9.35;3.67;;;17.00;99.90;;;;;;5039889;28;20044;-69
2023/07/21 08:22:51;;;;;;;5.88;3.70;;;17.10;99.90;;;;;;5039172;28;20029;-68
2023/07/21 08:25:18;;;;;;;7.47;2.80;;;17.30;99.90;;;;;;5038873;28;20527;-67
2023/07/21 08:27:45;;;;;;;7.00;3.15;;;17.40;99.90;;;;;;5033326;28;20045;-70
2023/07/21 08:30:11;;;;;;;6.97;3.00;;;17.50;99.90;;;;;;5042977;28;20060;-67
2023/07/21 08:32:39;;;;;;;4.38;2.60;;;17.60;99.90;;;;;;5038875;28;20022;-68
2023/07/21 08:35:06;;;;;;;5.47;2.85;;;17.70;99.90;;;;;;5036983;28;20029;-70
2023/07/21 08:37:32;;;;;;;7.82;2.35;;;17.80;99.90;;;;;;5035762;28;20047;-69
2023/07/21 08:39:58;;;;;;;6.15;2.47;;;17.80;99.90;;;;;;5037093;28;20387;-69
2023/07/21 08:42:25;;;;;;;5.90;2.80;;;17.80;99.90;;;;;;5039303;28;20026;-70
2023/07/21 08:44:53;;;;;;;4.50;2.50;;;17.70;99.90;;;;;;5040444;28;20022;-70
2023/07/21 08:47:20;;;;;;;5.05;2.25;;;17.70;99.90;;;;;;5040720;28;20067;-69
2023/07/21 08:49:47;;;;;;;5.55;2.47;;;17.70;99.90;;;;;;5040644;28;20029;-70
2023/07/21 08:52:13;;;;;;;6.75;2.70;;;17.70;99.90;;;;;;5041094;28;20167;-68
2023/07/21 08:54:39;;;;;;;6.40;2.67;;;17.80;99.90;;;;;;5037297;28;20033;-70
2023/07/21 08:57:07;;;;;;;9.55;2.70;;;17.90;99.90;;;;;;5036269;28;20035;-69
2023/07/21 08:59:33;;;;;;;5.90;2.55;;;17.90;99.90;;;;;;5036730;28;20072;-70
2023/07/21 09:01:59;;;;;;;4.60;2.63;;;17.90;99.90;;;;;;5039108;28;20064;-71
2023/07/21 09:04:25;;;;;;;6.97;3.22;;;18.10;99.90;;;;;;5038063;28;20113;-71
2023/07/21 09:06:52;;;;;;;7.32;3.25;;;18.20;99.90;;;;;;5039895;28;20025;-69
2023/07/21 09:09:19;;;;;;;6.40;2.78;;;18.40;99.90;;;;;;5038686;28;20060;-73
2023/07/21 09:11:45;;;;;;;5.43;2.80;;;18.60;99.90;;;;;;5039562;28;20097;-68
2023/07/21 09:14:11;;;;;;;7.18;3.00;;;18.70;99.90;;;;;;5042863;28;20112;-71
2023/07/21 09:16:39;;;;;;;4.13;2.40;;;18.80;99.90;;;;;;5042163;28;20048;-69
2023/07/21 09:19:05;;;;;;;5.68;2.70;;;19.00;99.90;;;;;;5041878;28;20026;-68
2023/07/21 09:21:31;;;;;;;4.63;2.30;;;19.10;99.90;;;;;;5043797;28;20040;-71
2023/07/21 09:24:08;;;;;;;7.68;2.75;;;19.10;99.90;;;;;;5041591;28;20108;-71
2023/07/21 09:26:34;;;;;;;5.03;2.10;;;19.10;99.90;;;;;;5042404;28;20034;-71
2023/07/21 09:29:00;;;;;;;5.00;2.33;;;19.10;99.90;;;;;;5046190;28;20029;-72
2023/07/21 09:31:28;;;;;;;3.95;2.33;;;19.20;99.90;;;;;;5041078;28;20553;-73
2023/07/21 09:33:54;;;;;;;3.38;2.03;;;19.30;99.90;;;;;;5042473;28;20048;-70
2023/07/21 09:36:22;;;;;;;4.57;1.95;;;19.40;99.90;;;;;;5043336;28;20021;-70
2023/07/21 09:38:48;;;;;;;4.85;2.10;;;19.40;99.90;;;;;;5044174;28;20586;-71
2023/07/21 09:41:15;;;;;;;2.85;1.80;;;19.60;99.90;;;;;;5042186;28;20061;-66
2023/07/21 09:43:42;;;;;;;4.85;2.25;;;19.60;99.90;;;;;;5041825;28;20029;-69
2023/07/21 09:46:08;;;;;;;3.15;1.80;;;19.70;99.90;;;;;;5042263;28;20048;-68
2023/07/21 09:48:35;;;;;;;4.03;2.30;;;19.70;99.90;;;;;;5043289;28;20029;-72
2023/07/21 09:51:04;;;;;;;5.10;2.20;;;19.80;99.90;;;;;;5041563;28;20057;-68
2023/07/21 09:53:34;;;;;;;3.75;1.75;;;19.80;99.90;;;;;;5042376;28;20026;-70
2023/07/21 09:56:02;;;;;;;4.72;1.65;;;19.90;99.90;;;;;;5043315;28;20021;-69
2023/07/21 09:58:30;;;;;;;5.25;2.00;;;20.00;99.90;;;;;;5042231;28;20029;-68
2023/07/21 10:01:04;;;;;;;3.45;1.73;;;20.00;99.90;;;;;;5042051;28;20117;-69
2023/07/21 10:03:31;;;;;;;2.17;1.73;;;20.10;99.90;;;;;;5042219;28;20044;-69
2023/07/21 10:05:59;;;;;;;4.13;1.80;;;20.10;99.90;;;;;;5043296;28;20025;-73
2023/07/21 10:08:27;;;;;;;6.25;2.03;;;20.00;99.90;;;;;;5041940;28;20025;-70
2023/07/21 10:10:57;;;;;;;4.07;1.80;;;19.80;99.90;;;;;;5041991;28;20040;-70
2023/07/21 10:13:26;;;;;;;4.88;1.77;;;19.70;99.90;;;;;;5043298;28;20055;-69
2023/07/21 10:15:52;;;;;;;3.10;1.60;;;19.70;99.90;;;;;;5040874;28;20026;-70
2023/07/21 10:18:18;;;;;;;5.00;1.90;;;19.80;99.90;;;;;;5041125;28;20123;-69
2023/07/21 10:20:49;;;;;;;5.15;2.42;;;20.10;99.90;;;;;;5040526;28;20037;-71
2023/07/21 10:23:17;;;;;;;4.80;1.70;;;20.20;99.90;;;;;;5040153;28;20074;-71
2023/07/21 10:25:48;;;;;;;2.63;1.73;;;20.30;99.90;;;;;;5039869;28;20048;-68
2023/07/21 10:28:14;;;;;;;3.60;1.83;;;20.40;99.90;;;;;;5041661;28;20060;-71
2023/07/21 10:30:43;;;;;;;4.90;1.70;;;20.50;99.90;;;;;;5043560;28;20021;-69
2023/07/21 10:33:13;;;;;;;3.17;1.80;;;20.60;99.90;;;;;;5042008;28;20025;-69
2023/07/21 10:35:39;;;;;;;4.05;2.03;;;20.60;99.90;;;;;;5042416;28;20033;-73
2023/07/21 10:38:13;;;;;;;2.72;1.73;;;20.60;99.90;;;;;;5039661;28;20028;-70
2023/07/21 10:40:42;;;;;;;;;;;20.70;99.90;;;;;;5041158;28;20041;-71
2023/07/21 10:43:08;;;;;;;2.38;1.33;;;20.70;99.90;;;;;;5041431;28;19909;-71
2023/07/21 10:45:34;;;;;;;2.85;1.40;;;20.80;99.90;;;;;;5040610;28;20033;-69
2023/07/21 10:48:13;;;;;;;4.90;1.85;;;20.80;99.90;;;;;;5039894;28;20036;-69
2023/07/21 10:50:54;;;;;;;3.35;1.80;;;20.90;99.90;;;;;;5041930;28;20030;-68
2023/07/21 10:53:21;;;;;;;2.53;1.63;;;20.90;99.90;;;;;;5039815;28;20086;-69
2023/07/21 10:55:49;;;;;;;2.45;1.50;;;20.80;99.90;;;;;;5039498;28;20037;-71
2023/07/21 10:58:15;;;;;;;3.50;1.45;;;20.70;99.90;;;;;;5039746;28;20033;-70
2023/07/21 11:00:49;;;;;;;2.20;1.42;;;20.50;99.90;;;;;;5042065;28;20053;-70
2023/07/21 11:03:15;;;;;;;;;;;20.50;99.90;;;;;;5042026;28;20040;-70
2023/07/21 11:05:41;;;;;;;2.97;1.63;;;20.80;99.90;;;;;;5039913;28;19913;-69
2023/07/21 11:08:11;;;;;;;6.18;2.17;;;20.90;99.90;;;;;;5039966;28;20092;-71
2023/07/21 11:10:37;;;;;;;5.82;1.92;;;20.90;99.90;;;;;;5040784;28;20022;-71
2023/07/21 11:13:02;;;;;;;3.20;1.85;;;20.90;99.90;;;;;;5042122;28;20033;-69
2023/07/21 11:15:28;;;;;;;2.47;1.40;;;20.90;99.90;;;;;;5041415;28;20028;-69
2023/07/21 11:18:04;;;;;;;2.75;1.63;;;20.90;99.90;;;;;;5038651;28;20034;-70
2023/07/21 11:20:30;;;;;;;2.33;1.33;;;20.70;99.90;;;;;;5035841;28;20048;-70
2023/07/21 11:22:56;;;;;;;3.05;1.17;;;20.70;99.90;;;;;;5039368;28;20448;-69
2023/07/21 11:25:22;;;;;;;1.70;1.30;;;20.80;99.90;;;;;;5040151;28;20036;-72
2023/07/21 11:27:51;;;;;;;2.17;1.20;;;21.00;99.90;;;;;;5040425;28;20026;-71
2023/07/21 11:30:18;;;;;;;1.80;1.25;;;21.20;99.90;;;;;;5040301;28;20085;-69
2023/07/21 11:32:44;;;;;;;1.85;1.15;;;21.40;99.90;;;;;;5039146;28;20533;-71
2023/07/21 11:35:10;;;;;;;2.17;1.13;;;21.70;99.90;;;;;;5039289;28;20053;-69
2023/07/21 11:37:44;;;;;;;2.75;1.88;;;21.80;99.90;;;;;;5040094;28;20037;-69
2023/07/21 11:40:29;;;;;;;3.25;1.60;;;22.00;99.90;;;;;;5038514;28;20094;-70
2023/07/21 11:42:58;;;;;;;3.38;1.40;;;22.10;99.90;;;;;;5037246;28;20025;-72
2023/07/21 11:45:37;;;;;;;3.38;1.40;;;22.40;99.90;;;;;;5039500;28;20033;-70
2023/07/21 11:48:12;;;;;;;4.53;1.30;;;22.50;99.90;;;;;;5035193;28;20041;-70
2023/07/21 11:50:56;;;;;;;1.60;1.10;;;22.60;99.90;;;;;;5039874;28;20017;-68
2023/07/21 11:53:26;;;;;;;2.20;1.10;;;22.70;99.90;;;;;;5040945;28;20055;-72
2023/07/21 11:55:52;;;;;;;2.60;1.27;;;22.80;99.90;;;;;;5040570;28;20043;-70
2023/07/21 11:58:17;;;;;;;2.17;1.23;;;22.80;99.90;;;;;;5041674;28;20562;-72
2023/07/21 12:00:43;;;;;;;2.88;1.23;;;22.70;99.90;;;;;;5042319;28;20034;-70
2023/07/21 12:03:10;;;;;;;2.60;1.10;;;22.60;99.90;;;;;;5044189;28;20006;-70
2023/07/21 12:05:36;;;;;;;5.68;1.52;;;22.50;99.90;;;;;;5041902;28;20026;-71
2023/07/21 12:08:03;;;;;;;2.88;1.30;;;22.40;99.90;;;;;;5041938;28;20040;-73
2023/07/21 12:10:29;;;;;;;2.00;1.00;;;22.50;99.90;;;;;;5041858;28;20021;-70
2023/07/21 12:12:55;;;;;;;2.65;1.15;;;22.50;99.90;;;;;;5041429;28;20466;-72
2023/07/21 12:15:21;;;;;;;1.90;1.05;;;22.60;99.90;;;;;;5040469;28;20031;-69
2023/07/21 12:17:50;;;;;;;3.05;1.10;;;22.80;99.90;;;;;;5041662;28;20071;-74
2023/07/21 12:20:17;;;;;;;1.92;1.23;;;22.90;99.90;;;;;;5040869;28;20041;-71
2023/07/21 12:22:43;;;;;;;2.95;1.20;;;23.00;99.90;;;;;;5041432;28;20017;-72
2023/07/21 12:25:09;;;;;;;1.60;1.13;;;23.10;99.90;;;;;;5041758;28;20030;-67
2023/07/21 12:27:36;;;;;;;2.85;1.20;;;23.20;99.90;;;;;;5039556;28;20025;-69
2023/07/21 12:30:10;;;;;;;1.50;1.10;;;23.10;99.90;;;;;;5041519;28;21325;-68
2023/07/21 12:32:36;;;;;;;1.70;1.02;;;23.00;99.90;;;;;;5041113;28;20017;-69
2023/07/21 12:35:04;;;;;;;1.70;1.00;;;22.90;99.90;;;;;;5041391;28;20708;-72
2023/07/21 12:37:30;;;;;;;1.40;1.05;;;22.80;99.90;;;;;;5039995;28;20029;-70
2023/07/21 12:39:56;;;;;;;2.42;0.90;;;22.60;99.90;;;;;;5041379;28;20211;-70